sensor_id;sensor_type;location;lat;lon;timestamp;temperature;humidity
8858;DHT22;4465;50.904;4.696;2022-11-15T00:00:30;11.30;99.90
8858;DHT22;4465;50.904;4.696;2022-11-15T00:02:56;11.20;99.90
8858;DHT22;4465;50.904;4.696;2022-11-15T00:05:24;11.30;99.90
8858;DHT22;4465;50.904;4.696;2022-11-15T00:07:52;11.30;99.90
8858;DHT22;4465;50.904;4.696;2022-11-15T00:10:19;11.30;99.90
8858;DHT22;4465;50.904;4.696;2022-11-15T00:12:45;11.30;99.90
8858;DHT22;4465;50.904;4.696;2022-11-15T00:15:10;11.40;99.90
8858;DHT22;4465;50.904;4.696;2022-11-15T00:17:37;11.50;99.90
8858;DHT22;4465;50.904;4.696;2022-11-15T00:20:03;11.50;99.90
8858;DHT22;4465;50.904;4.696;2022-11-15T00:22:33;11.40;99.90
8858;DHT22;4465;50.904;4.696;2022-11-15T00:24:59;11.40;99.90
8858;DHT22;4465;50.904;4.696;2022-11-15T00:27:25;11.40;99.90
8858;DHT22;4465;50.904;4.696;2022-11-15T00:29:51;11.50;99.90
8858;DHT22;4465;50.904;4.696;2022-11-15T00:32:17;11.40;99.90
8858;DHT22;4465;50.904;4.696;2022-11-15T00:34:43;11.50;99.90
8858;DHT22;4465;50.904;4.696;2022-11-15T00:37:08;11.50;99.90
8858;DHT22;4465;50.904;4.696;2022-11-15T00:39:35;11.50;99.90
8858;DHT22;4465;50.904;4.696;2022-11-15T00:42:01;11.50;99.90
8858;DHT22;4465;50.904;4.696;2022-11-15T00:44:27;11.50;99.90
8858;DHT22;4465;50.904;4.696;2022-11-15T00:46:53;11.60;99.90
8858;DHT22;4465;50.904;4.696;2022-11-15T00:49:18;11.60;99.90
8858;DHT22;4465;50.904;4.696;2022-11-15T00:51:44;11.60;99.90
8858;DHT22;4465;50.904;4.696;2022-11-15T00:54:10;11.60;99.90
8858;DHT22;4465;50.904;4.696;2022-11-15T00:56:37;11.60;99.90
8858;DHT22;4465;50.904;4.696;2022-11-15T00:59:03;11.60;99.90
8858;DHT22;4465;50.904;4.696;2022-11-15T01:01:28;11.70;99.90
8858;DHT22;4465;50.904;4.696;2022-11-15T01:03:55;11.70;99.90
8858;DHT22;4465;50.904;4.696;2022-11-15T01:06:21;11.80;99.90
8858;DHT22;4465;50.904;4.696;2022-11-15T01:08:47;11.70;99.90
8858;DHT22;4465;50.904;4.696;2022-11-15T01:11:13;11.70;99.90
8858;DHT22;4465;50.904;4.696;2022-11-15T01:13:39;11.70;99.90
8858;DHT22;4465;50.904;4.696;2022-11-15T01:16:11;11.80;99.90
8858;DHT22;4465;50.904;4.696;2022-11-15T01:18:40;11.80;99.90
8858;DHT22;4465;50.904;4.696;2022-11-15T01:21:17;11.80;99.90
8858;DHT22;4465;50.904;4.696;2022-11-15T01:23:46;11.80;99.90
8858;DHT22;4465;50.904;4.696;2022-11-15T01:26:14;11.80;99.90
8858;DHT22;4465;50.904;4.696;2022-11-15T01:28:41;11.80;99.90
8858;DHT22;4465;50.904;4.696;2022-11-15T01:31:13;11.80;99.90
8858;DHT22;4465;50.904;4.696;2022-11-15T01:33:41;11.80;99.90
8858;DHT22;4465;50.904;4.696;2022-11-15T01:36:12;11.90;99.90
8858;DHT22;4465;50.904;4.696;2022-11-15T01:38:38;11.90;99.90
8858;DHT22;4465;50.904;4.696;2022-11-15T01:41:04;11.90;99.90
8858;DHT22;4465;50.904;4.696;2022-11-15T01:43:33;11.90;99.90
8858;DHT22;4465;50.904;4.696;2022-11-15T01:46:06;12.00;99.90
8858;DHT22;4465;50.904;4.696;2022-11-15T01:48:34;11.90;99.90
8858;DHT22;4465;50.904;4.696;2022-11-15T01:51:05;11.90;99.90
8858;DHT22;4465;50.904;4.696;2022-11-15T01:53:33;12.00;99.90
8858;DHT22;4465;50.904;4.696;2022-11-15T01:56:10;12.10;99.90
8858;DHT22;4465;50.904;4.696;2022-11-15T01:58:38;12.00;99.90
8858;DHT22;4465;50.904;4.696;2022-11-15T02:01:04;12.00;99.90
8858;DHT22;4465;50.904;4.696;2022-11-15T02:03:51;12.10;99.90
8858;DHT22;4465;50.904;4.696;2022-11-15T02:06:25;12.10;99.90
8858;DHT22;4465;50.904;4.696;2022-11-15T02:08:51;12.10;99.90
8858;DHT22;4465;50.904;4.696;2022-11-15T02:11:17;12.10;99.90
8858;DHT22;4465;50.904;4.696;2022-11-15T02:13:43;12.10;99.90
8858;DHT22;4465;50.904;4.696;2022-11-15T02:28:03;12.10;99.90
8858;DHT22;4465;50.904;4.696;2022-11-15T02:30:52;12.20;99.90
8858;DHT22;4465;50.904;4.696;2022-11-15T02:33:52;12.20;99.90
8858;DHT22;4465;50.904;4.696;2022-11-15T02:36:31;12.20;99.90
8858;DHT22;4465;50.904;4.696;2022-11-15T02:39:05;12.20;99.90
8858;DHT22;4465;50.904;4.696;2022-11-15T02:41:51;12.20;99.90
8858;DHT22;4465;50.904;4.696;2022-11-15T02:44:26;12.30;99.90
8858;DHT22;4465;50.904;4.696;2022-11-15T02:46:59;12.20;99.90
8858;DHT22;4465;50.904;4.696;2022-11-15T02:49:53;12.20;99.90
8858;DHT22;4465;50.904;4.696;2022-11-15T02:52:24;12.30;99.90
8858;DHT22;4465;50.904;4.696;2022-11-15T02:54:54;12.30;99.90
8858;DHT22;4465;50.904;4.696;2022-11-15T03:00:00;12.30;99.90
8858;DHT22;4465;50.904;4.696;2022-11-15T03:05:46;12.20;99.90
8858;DHT22;4465;50.904;4.696;2022-11-15T03:08:31;12.20;99.90
8858;DHT22;4465;50.904;4.696;2022-11-15T03:11:08;12.20;99.90
8858;DHT22;4465;50.904;4.696;2022-11-15T03:13:58;12.20;99.90
8858;DHT22;4465;50.904;4.696;2022-11-15T03:19:22;12.20;99.90
8858;DHT22;4465;50.904;4.696;2022-11-15T03:21:45;12.20;99.90
8858;DHT22;4465;50.904;4.696;2022-11-15T03:24:12;12.10;99.90
8858;DHT22;4465;50.904;4.696;2022-11-15T03:26:41;12.20;99.90
8858;DHT22;4465;50.904;4.696;2022-11-15T03:29:17;12.10;99.90
8858;DHT22;4465;50.904;4.696;2022-11-15T03:31:51;12.10;99.90
8858;DHT22;4465;50.904;4.696;2022-11-15T03:34:39;12.10;99.90
8858;DHT22;4465;50.904;4.696;2022-11-15T03:37:07;12.10;99.90
8858;DHT22;4465;50.904;4.696;2022-11-15T03:39:34;12.10;99.90
8858;DHT22;4465;50.904;4.696;2022-11-15T03:42:25;12.20;99.90
8858;DHT22;4465;50.904;4.696;2022-11-15T03:45:05;12.20;99.90
8858;DHT22;4465;50.904;4.696;2022-11-15T03:47:37;12.20;99.90
8858;DHT22;4465;50.904;4.696;2022-11-15T03:50:17;12.20;99.90
8858;DHT22;4465;50.904;4.696;2022-11-15T03:52:46;12.20;99.90
8858;DHT22;4465;50.904;4.696;2022-11-15T03:55:16;12.10;99.90
8858;DHT22;4465;50.904;4.696;2022-11-15T03:57:43;12.20;99.90
8858;DHT22;4465;50.904;4.696;2022-11-15T04:00:14;12.10;99.90
8858;DHT22;4465;50.904;4.696;2022-11-15T04:02:40;12.10;99.90
8858;DHT22;4465;50.904;4.696;2022-11-15T04:05:06;12.10;99.90
8858;DHT22;4465;50.904;4.696;2022-11-15T04:07:32;12.10;99.90
8858;DHT22;4465;50.904;4.696;2022-11-15T04:10:00;12.10;99.90
8858;DHT22;4465;50.904;4.696;2022-11-15T04:12:31;12.10;99.90
8858;DHT22;4465;50.904;4.696;2022-11-15T04:15:05;12.10;99.90
8858;DHT22;4465;50.904;4.696;2022-11-15T04:20:05;12.10;99.90
8858;DHT22;4465;50.904;4.696;2022-11-15T04:22:52;12.10;99.90
8858;DHT22;4465;50.904;4.696;2022-11-15T04:25:37;12.10;99.90
8858;DHT22;4465;50.904;4.696;2022-11-15T04:28:03;12.00;99.90
8858;DHT22;4465;50.904;4.696;2022-11-15T04:30:28;12.00;99.90
8858;DHT22;4465;50.904;4.696;2022-11-15T04:32:54;12.00;99.90
8858;DHT22;4465;50.904;4.696;2022-11-15T04:35:20;12.00;99.90
8858;DHT22;4465;50.904;4.696;2022-11-15T04:37:46;12.00;99.90
8858;DHT22;4465;50.904;4.696;2022-11-15T04:40:12;11.90;99.90
8858;DHT22;4465;50.904;4.696;2022-11-15T04:42:41;11.90;99.90
8858;DHT22;4465;50.904;4.696;2022-11-15T04:45:08;11.90;99.90
8858;DHT22;4465;50.904;4.696;2022-11-15T04:47:34;11.90;99.90
8858;DHT22;4465;50.904;4.696;2022-11-15T04:50:00;11.90;99.90
8858;DHT22;4465;50.904;4.696;2022-11-15T04:52:26;11.80;99.90
8858;DHT22;4465;50.904;4.696;2022-11-15T04:54:52;11.80;99.90
8858;DHT22;4465;50.904;4.696;2022-11-15T04:57:18;11.80;99.90
8858;DHT22;4465;50.904;4.696;2022-11-15T04:59:45;11.80;99.90
8858;DHT22;4465;50.904;4.696;2022-11-15T05:02:11;11.70;99.90
8858;DHT22;4465;50.904;4.696;2022-11-15T05:04:39;11.70;99.90
8858;DHT22;4465;50.904;4.696;2022-11-15T05:07:06;11.70;99.90
8858;DHT22;4465;50.904;4.696;2022-11-15T05:09:32;11.60;99.90
8858;DHT22;4465;50.904;4.696;2022-11-15T05:11:58;11.60;99.90
8858;DHT22;4465;50.904;4.696;2022-11-15T05:14:26;11.60;99.90
8858;DHT22;4465;50.904;4.696;2022-11-15T05:16:52;11.50;99.90
8858;DHT22;4465;50.904;4.696;2022-11-15T05:19:20;11.50;99.90
8858;DHT22;4465;50.904;4.696;2022-11-15T05:21:47;11.40;99.90
8858;DHT22;4465;50.904;4.696;2022-11-15T05:24:13;11.40;99.90
8858;DHT22;4465;50.904;4.696;2022-11-15T05:26:41;11.40;99.90
8858;DHT22;4465;50.904;4.696;2022-11-15T05:29:10;11.50;99.90
8858;DHT22;4465;50.904;4.696;2022-11-15T05:31:40;11.40;99.90
8858;DHT22;4465;50.904;4.696;2022-11-15T05:34:09;11.40;99.90
8858;DHT22;4465;50.904;4.696;2022-11-15T05:36:36;11.40;99.90
8858;DHT22;4465;50.904;4.696;2022-11-15T05:39:05;11.30;99.90
8858;DHT22;4465;50.904;4.696;2022-11-15T05:41:35;11.30;99.90
8858;DHT22;4465;50.904;4.696;2022-11-15T05:44:06;11.30;99.90
8858;DHT22;4465;50.904;4.696;2022-11-15T05:46:35;11.30;99.90
8858;DHT22;4465;50.904;4.696;2022-11-15T05:49:02;11.20;99.90
8858;DHT22;4465;50.904;4.696;2022-11-15T05:51:30;11.20;99.90
8858;DHT22;4465;50.904;4.696;2022-11-15T05:53:58;11.20;99.90
8858;DHT22;4465;50.904;4.696;2022-11-15T05:56:25;11.10;99.90
8858;DHT22;4465;50.904;4.696;2022-11-15T05:58:55;11.10;99.90
8858;DHT22;4465;50.904;4.696;2022-11-15T06:01:22;11.10;99.90
8858;DHT22;4465;50.904;4.696;2022-11-15T06:03:52;11.10;99.90
8858;DHT22;4465;50.904;4.696;2022-11-15T06:06:20;11.00;99.90
8858;DHT22;4465;50.904;4.696;2022-11-15T06:08:46;11.10;99.90
8858;DHT22;4465;50.904;4.696;2022-11-15T06:11:13;11.00;99.90
8858;DHT22;4465;50.904;4.696;2022-11-15T06:13:39;11.00;99.90
8858;DHT22;4465;50.904;4.696;2022-11-15T06:16:06;10.90;99.90
8858;DHT22;4465;50.904;4.696;2022-11-15T06:18:33;10.90;99.90
8858;DHT22;4465;50.904;4.696;2022-11-15T06:21:00;10.90;99.90
8858;DHT22;4465;50.904;4.696;2022-11-15T06:23:26;10.90;99.90
8858;DHT22;4465;50.904;4.696;2022-11-15T06:25:52;10.80;99.90
8858;DHT22;4465;50.904;4.696;2022-11-15T06:28:19;10.80;99.90
8858;DHT22;4465;50.904;4.696;2022-11-15T06:30:45;10.80;99.90
8858;DHT22;4465;50.904;4.696;2022-11-15T06:33:13;10.80;99.90
8858;DHT22;4465;50.904;4.696;2022-11-15T06:35:39;10.70;99.90
8858;DHT22;4465;50.904;4.696;2022-11-15T06:38:08;10.70;99.90
8858;DHT22;4465;50.904;4.696;2022-11-15T06:40:35;10.60;99.90
8858;DHT22;4465;50.904;4.696;2022-11-15T06:43:05;10.60;99.90
8858;DHT22;4465;50.904;4.696;2022-11-15T06:45:34;10.60;99.90
8858;DHT22;4465;50.904;4.696;2022-11-15T06:48:00;10.60;99.90
8858;DHT22;4465;50.904;4.696;2022-11-15T06:50:26;10.50;99.90
8858;DHT22;4465;50.904;4.696;2022-11-15T06:52:54;10.50;99.90
8858;DHT22;4465;50.904;4.696;2022-11-15T06:55:20;10.50;99.90
8858;DHT22;4465;50.904;4.696;2022-11-15T06:57:52;10.40;99.90
8858;DHT22;4465;50.904;4.696;2022-11-15T07:00:22;10.30;99.90
8858;DHT22;4465;50.904;4.696;2022-11-15T07:02:51;10.30;99.90
8858;DHT22;4465;50.904;4.696;2022-11-15T07:05:17;10.30;99.90
8858;DHT22;4465;50.904;4.696;2022-11-15T07:07:43;10.20;99.90
8858;DHT22;4465;50.904;4.696;2022-11-15T07:10:10;10.20;99.90
8858;DHT22;4465;50.904;4.696;2022-11-15T07:12:36;10.20;99.90
8858;DHT22;4465;50.904;4.696;2022-11-15T07:15:02;10.10;99.90
8858;DHT22;4465;50.904;4.696;2022-11-15T07:17:28;10.10;99.90
8858;DHT22;4465;50.904;4.696;2022-11-15T07:19:54;10.10;99.90
8858;DHT22;4465;50.904;4.696;2022-11-15T07:22:20;10.10;99.90
8858;DHT22;4465;50.904;4.696;2022-11-15T07:24:46;10.10;99.90
8858;DHT22;4465;50.904;4.696;2022-11-15T07:27:12;10.00;99.90
8858;DHT22;4465;50.904;4.696;2022-11-15T07:29:40;10.00;99.90
8858;DHT22;4465;50.904;4.696;2022-11-15T07:32:06;10.00;99.90
8858;DHT22;4465;50.904;4.696;2022-11-15T07:34:32;10.00;99.90
8858;DHT22;4465;50.904;4.696;2022-11-15T07:36:58;10.00;99.90
8858;DHT22;4465;50.904;4.696;2022-11-15T07:39:24;10.00;99.90
8858;DHT22;4465;50.904;4.696;2022-11-15T07:41:52;10.00;99.90
8858;DHT22;4465;50.904;4.696;2022-11-15T07:44:38;10.00;99.90
8858;DHT22;4465;50.904;4.696;2022-11-15T07:47:07;10.00;99.90
8858;DHT22;4465;50.904;4.696;2022-11-15T07:49:33;10.00;99.90
8858;DHT22;4465;50.904;4.696;2022-11-15T07:52:04;10.10;99.90
8858;DHT22;4465;50.904;4.696;2022-11-15T07:54:30;10.20;99.90
8858;DHT22;4465;50.904;4.696;2022-11-15T07:56:56;10.10;99.90
8858;DHT22;4465;50.904;4.696;2022-11-15T07:59:22;10.10;99.90
8858;DHT22;4465;50.904;4.696;2022-11-15T08:01:49;10.20;99.90
8858;DHT22;4465;50.904;4.696;2022-11-15T08:04:20;10.20;99.90
8858;DHT22;4465;50.904;4.696;2022-11-15T08:06:46;10.20;99.90
8858;DHT22;4465;50.904;4.696;2022-11-15T08:09:12;10.20;99.90
8858;DHT22;4465;50.904;4.696;2022-11-15T08:11:38;10.20;99.90
8858;DHT22;4465;50.904;4.696;2022-11-15T08:14:04;10.20;99.90
8858;DHT22;4465;50.904;4.696;2022-11-15T08:16:30;10.30;99.90
8858;DHT22;4465;50.904;4.696;2022-11-15T08:18:56;10.30;99.90
8858;DHT22;4465;50.904;4.696;2022-11-15T08:21:22;10.50;99.90
8858;DHT22;4465;50.904;4.696;2022-11-15T08:23:49;10.50;99.90
8858;DHT22;4465;50.904;4.696;2022-11-15T08:26:17;10.50;99.90
8858;DHT22;4465;50.904;4.696;2022-11-15T08:28:43;10.50;99.90
8858;DHT22;4465;50.904;4.696;2022-11-15T08:31:14;10.60;99.90
8858;DHT22;4465;50.904;4.696;2022-11-15T08:33:43;10.60;99.90
8858;DHT22;4465;50.904;4.696;2022-11-15T08:36:13;10.60;99.90
8858;DHT22;4465;50.904;4.696;2022-11-15T08:38:40;10.60;99.90
8858;DHT22;4465;50.904;4.696;2022-11-15T08:41:07;10.60;99.90
8858;DHT22;4465;50.904;4.696;2022-11-15T08:43:36;10.70;99.90
8858;DHT22;4465;50.904;4.696;2022-11-15T08:46:04;10.80;99.90
8858;DHT22;4465;50.904;4.696;2022-11-15T08:48:32;10.80;99.90
8858;DHT22;4465;50.904;4.696;2022-11-15T08:51:00;10.80;99.90
8858;DHT22;4465;50.904;4.696;2022-11-15T08:53:27;10.90;99.90
8858;DHT22;4465;50.904;4.696;2022-11-15T08:55:53;10.90;99.90
8858;DHT22;4465;50.904;4.696;2022-11-15T08:58:19;11.00;99.90
8858;DHT22;4465;50.904;4.696;2022-11-15T09:00:48;10.90;99.90
8858;DHT22;4465;50.904;4.696;2022-11-15T09:03:18;10.90;99.90
8858;DHT22;4465;50.904;4.696;2022-11-15T09:05:46;11.00;99.90
8858;DHT22;4465;50.904;4.696;2022-11-15T09:08:12;10.90;99.90
8858;DHT22;4465;50.904;4.696;2022-11-15T09:10:38;10.90;99.90
8858;DHT22;4465;50.904;4.696;2022-11-15T09:13:04;10.90;99.90
8858;DHT22;4465;50.904;4.696;2022-11-15T09:15:31;10.90;99.90
8858;DHT22;4465;50.904;4.696;2022-11-15T09:18:00;10.90;99.90
8858;DHT22;4465;50.904;4.696;2022-11-15T09:20:27;10.90;99.90
8858;DHT22;4465;50.904;4.696;2022-11-15T09:22:59;11.00;99.90
8858;DHT22;4465;50.904;4.696;2022-11-15T09:25:29;11.20;99.90
8858;DHT22;4465;50.904;4.696;2022-11-15T09:27:57;11.20;99.90
8858;DHT22;4465;50.904;4.696;2022-11-15T09:30:24;11.40;99.90
8858;DHT22;4465;50.904;4.696;2022-11-15T09:32:51;11.50;99.90
8858;DHT22;4465;50.904;4.696;2022-11-15T09:35:17;11.50;99.90
8858;DHT22;4465;50.904;4.696;2022-11-15T09:37:43;11.60;99.90
8858;DHT22;4465;50.904;4.696;2022-11-15T09:40:11;11.60;99.90
8858;DHT22;4465;50.904;4.696;2022-11-15T09:45:22;11.90;99.90
8858;DHT22;4465;50.904;4.696;2022-11-15T09:51:03;12.20;99.90
8858;DHT22;4465;50.904;4.696;2022-11-15T09:53:47;12.40;99.90
8858;DHT22;4465;50.904;4.696;2022-11-15T09:56:28;12.50;99.90
8858;DHT22;4465;50.904;4.696;2022-11-15T10:02:03;12.80;99.90
8858;DHT22;4465;50.904;4.696;2022-11-15T10:04:31;12.90;99.90
8858;DHT22;4465;50.904;4.696;2022-11-15T10:07:17;13.00;99.90
8858;DHT22;4465;50.904;4.696;2022-11-15T10:12:18;13.20;99.90
8858;DHT22;4465;50.904;4.696;2022-11-15T10:14:46;13.20;99.90
8858;DHT22;4465;50.904;4.696;2022-11-15T10:20:14;13.40;99.90
8858;DHT22;4465;50.904;4.696;2022-11-15T10:23:19;13.20;99.90
8858;DHT22;4465;50.904;4.696;2022-11-15T10:25:45;13.20;99.90
8858;DHT22;4465;50.904;4.696;2022-11-15T10:28:17;13.20;99.90
8858;DHT22;4465;50.904;4.696;2022-11-15T10:30:49;13.10;99.90
8858;DHT22;4465;50.904;4.696;2022-11-15T10:35:48;13.00;99.90
8858;DHT22;4465;50.904;4.696;2022-11-15T10:38:14;13.00;99.90
8858;DHT22;4465;50.904;4.696;2022-11-15T10:40:43;12.90;99.90
8858;DHT22;4465;50.904;4.696;2022-11-15T10:45:38;12.80;99.90
8858;DHT22;4465;50.904;4.696;2022-11-15T10:50:46;12.80;99.90
8858;DHT22;4465;50.904;4.696;2022-11-15T10:55:53;12.80;99.90
8858;DHT22;4465;50.904;4.696;2022-11-15T11:00:51;12.90;99.90
8858;DHT22;4465;50.904;4.696;2022-11-15T11:03:36;13.00;99.90
8858;DHT22;4465;50.904;4.696;2022-11-15T11:06:17;12.90;99.90
8858;DHT22;4465;50.904;4.696;2022-11-15T11:09:00;13.00;99.90
8858;DHT22;4465;50.904;4.696;2022-11-15T11:11:55;12.90;99.90
8858;DHT22;4465;50.904;4.696;2022-11-15T11:17:13;12.80;99.90
8858;DHT22;4465;50.904;4.696;2022-11-15T11:20:20;12.80;99.90
8858;DHT22;4465;50.904;4.696;2022-11-15T11:22:52;12.80;99.90
8858;DHT22;4465;50.904;4.696;2022-11-15T11:25:29;12.80;99.90
8858;DHT22;4465;50.904;4.696;2022-11-15T11:28:18;12.70;99.90
8858;DHT22;4465;50.904;4.696;2022-11-15T11:36:39;12.60;99.90
8858;DHT22;4465;50.904;4.696;2022-11-15T11:50:41;12.70;99.90
8858;DHT22;4465;50.904;4.696;2022-11-15T11:53:23;12.70;99.90
8858;DHT22;4465;50.904;4.696;2022-11-15T11:55:55;12.70;99.90
8858;DHT22;4465;50.904;4.696;2022-11-15T11:58:41;12.70;99.90
8858;DHT22;4465;50.904;4.696;2022-11-15T12:01:13;12.70;99.90
8858;DHT22;4465;50.904;4.696;2022-11-15T12:06:47;12.80;99.90
8858;DHT22;4465;50.904;4.696;2022-11-15T12:09:44;12.80;99.90
8858;DHT22;4465;50.904;4.696;2022-11-15T12:12:18;12.80;99.90
8858;DHT22;4465;50.904;4.696;2022-11-15T12:15:26;12.80;99.90
8858;DHT22;4465;50.904;4.696;2022-11-15T12:17:55;12.80;99.90
8858;DHT22;4465;50.904;4.696;2022-11-15T12:20:28;12.80;99.90
8858;DHT22;4465;50.904;4.696;2022-11-15T12:28:30;12.90;99.90
8858;DHT22;4465;50.904;4.696;2022-11-15T12:31:24;12.90;99.90
8858;DHT22;4465;50.904;4.696;2022-11-15T12:33:56;12.90;99.90
8858;DHT22;4465;50.904;4.696;2022-11-15T12:39:01;13.00;99.90
8858;DHT22;4465;50.904;4.696;2022-11-15T12:41:30;13.00;99.90
8858;DHT22;4465;50.904;4.696;2022-11-15T12:43:57;13.00;99.90
8858;DHT22;4465;50.904;4.696;2022-11-15T12:59:54;13.00;99.90
8858;DHT22;4465;50.904;4.696;2022-11-15T13:02:28;13.00;99.90
8858;DHT22;4465;50.904;4.696;2022-11-15T13:12:55;13.10;99.90
8858;DHT22;4465;50.904;4.696;2022-11-15T13:16:10;13.20;99.90
8858;DHT22;4465;50.904;4.696;2022-11-15T13:18:38;13.20;99.90
8858;DHT22;4465;50.904;4.696;2022-11-15T13:21:23;13.20;99.90
8858;DHT22;4465;50.904;4.696;2022-11-15T13:24:16;13.20;99.90
8858;DHT22;4465;50.904;4.696;2022-11-15T13:26:43;13.30;99.90
8858;DHT22;4465;50.904;4.696;2022-11-15T13:29:17;13.30;99.90
8858;DHT22;4465;50.904;4.696;2022-11-15T13:31:44;13.40;99.90
8858;DHT22;4465;50.904;4.696;2022-11-15T13:34:23;13.30;99.90
8858;DHT22;4465;50.904;4.696;2022-11-15T13:36:50;13.40;99.90
8858;DHT22;4465;50.904;4.696;2022-11-15T13:39:28;13.40;99.90
8858;DHT22;4465;50.904;4.696;2022-11-15T13:41:54;13.40;99.90
8858;DHT22;4465;50.904;4.696;2022-11-15T13:44:26;13.40;99.90
8858;DHT22;4465;50.904;4.696;2022-11-15T13:47:05;13.40;99.90
8858;DHT22;4465;50.904;4.696;2022-11-15T13:49:33;13.50;99.90
8858;DHT22;4465;50.904;4.696;2022-11-15T13:52:02;13.50;99.90
8858;DHT22;4465;50.904;4.696;2022-11-15T13:54:41;13.40;99.90
8858;DHT22;4465;50.904;4.696;2022-11-15T13:57:38;13.40;99.90
8858;DHT22;4465;50.904;4.696;2022-11-15T14:00:04;13.50;99.90
8858;DHT22;4465;50.904;4.696;2022-11-15T14:02:33;13.50;99.90
8858;DHT22;4465;50.904;4.696;2022-11-15T14:05:05;13.50;99.90
8858;DHT22;4465;50.904;4.696;2022-11-15T14:07:39;13.50;99.90
8858;DHT22;4465;50.904;4.696;2022-11-15T14:12:55;13.50;99.90
8858;DHT22;4465;50.904;4.696;2022-11-15T14:15:31;13.50;99.90
8858;DHT22;4465;50.904;4.696;2022-11-15T14:17:58;13.50;99.90
8858;DHT22;4465;50.904;4.696;2022-11-15T14:20:37;13.60;99.90
8858;DHT22;4465;50.904;4.696;2022-11-15T14:23:29;13.50;99.90
8858;DHT22;4465;50.904;4.696;2022-11-15T14:26:00;13.60;99.90
8858;DHT22;4465;50.904;4.696;2022-11-15T14:30:54;13.50;99.90
8858;DHT22;4465;50.904;4.696;2022-11-15T14:33:30;13.60;99.90
8858;DHT22;4465;50.904;4.696;2022-11-15T14:35:58;13.60;99.90
8858;DHT22;4465;50.904;4.696;2022-11-15T14:38:30;13.60;99.90
8858;DHT22;4465;50.904;4.696;2022-11-15T14:40:58;13.50;99.90
8858;DHT22;4465;50.904;4.696;2022-11-15T14:43:24;13.50;99.90
8858;DHT22;4465;50.904;4.696;2022-11-15T14:45:52;13.50;99.90
8858;DHT22;4465;50.904;4.696;2022-11-15T14:48:18;13.40;99.90
8858;DHT22;4465;50.904;4.696;2022-11-15T14:50:44;13.40;99.90
8858;DHT22;4465;50.904;4.696;2022-11-15T14:53:17;13.30;99.90
8858;DHT22;4465;50.904;4.696;2022-11-15T14:55:44;13.30;99.90
8858;DHT22;4465;50.904;4.696;2022-11-15T14:58:10;13.30;99.90
8858;DHT22;4465;50.904;4.696;2022-11-15T15:00:37;13.20;99.90
8858;DHT22;4465;50.904;4.696;2022-11-15T15:03:05;13.10;99.90
8858;DHT22;4465;50.904;4.696;2022-11-15T15:05:36;13.10;99.90
8858;DHT22;4465;50.904;4.696;2022-11-15T15:08:04;13.10;99.90
8858;DHT22;4465;50.904;4.696;2022-11-15T15:10:35;13.10;99.90
8858;DHT22;4465;50.904;4.696;2022-11-15T15:13:03;13.10;99.90
8858;DHT22;4465;50.904;4.696;2022-11-15T15:15:34;13.10;99.90
8858;DHT22;4465;50.904;4.696;2022-11-15T15:18:01;13.00;99.90
8858;DHT22;4465;50.904;4.696;2022-11-15T15:20:27;13.00;99.90
8858;DHT22;4465;50.904;4.696;2022-11-15T15:22:54;13.00;99.90
8858;DHT22;4465;50.904;4.696;2022-11-15T15:25:21;13.00;99.90
8858;DHT22;4465;50.904;4.696;2022-11-15T15:27:47;13.00;99.90
8858;DHT22;4465;50.904;4.696;2022-11-15T15:30:14;13.00;99.90
8858;DHT22;4465;50.904;4.696;2022-11-15T15:32:40;13.00;99.90
8858;DHT22;4465;50.904;4.696;2022-11-15T15:35:07;12.90;99.90
8858;DHT22;4465;50.904;4.696;2022-11-15T15:37:36;12.90;99.90
8858;DHT22;4465;50.904;4.696;2022-11-15T15:40:21;12.90;99.90
8858;DHT22;4465;50.904;4.696;2022-11-15T15:42:48;12.90;99.90
8858;DHT22;4465;50.904;4.696;2022-11-15T15:45:15;12.80;99.90
8858;DHT22;4465;50.904;4.696;2022-11-15T15:47:44;12.80;99.90
8858;DHT22;4465;50.904;4.696;2022-11-15T15:50:26;12.80;99.90
8858;DHT22;4465;50.904;4.696;2022-11-15T15:52:55;12.80;99.90
8858;DHT22;4465;50.904;4.696;2022-11-15T15:55:24;12.70;99.90
8858;DHT22;4465;50.904;4.696;2022-11-15T15:57:53;12.70;99.90
8858;DHT22;4465;50.904;4.696;2022-11-15T16:00:23;12.70;99.90
8858;DHT22;4465;50.904;4.696;2022-11-15T16:02:51;12.70;99.90
8858;DHT22;4465;50.904;4.696;2022-11-15T16:05:17;12.70;99.90
8858;DHT22;4465;50.904;4.696;2022-11-15T16:07:44;12.80;99.90
8858;DHT22;4465;50.904;4.696;2022-11-15T16:10:21;12.70;99.90
8858;DHT22;4465;50.904;4.696;2022-11-15T16:12:48;12.70;99.90
8858;DHT22;4465;50.904;4.696;2022-11-15T16:15:17;12.60;99.90
8858;DHT22;4465;50.904;4.696;2022-11-15T16:17:55;12.60;99.90
8858;DHT22;4465;50.904;4.696;2022-11-15T16:22:47;12.60;99.90
8858;DHT22;4465;50.904;4.696;2022-11-15T16:25:13;12.60;99.90
8858;DHT22;4465;50.904;4.696;2022-11-15T16:27:39;12.60;99.90
8858;DHT22;4465;50.904;4.696;2022-11-15T16:30:18;12.60;99.90
8858;DHT22;4465;50.904;4.696;2022-11-15T16:32:44;12.60;99.90
8858;DHT22;4465;50.904;4.696;2022-11-15T16:35:11;12.60;99.90
8858;DHT22;4465;50.904;4.696;2022-11-15T16:37:41;12.60;99.90
8858;DHT22;4465;50.904;4.696;2022-11-15T16:42:50;12.60;99.90
8858;DHT22;4465;50.904;4.696;2022-11-15T16:45:16;12.60;99.90
8858;DHT22;4465;50.904;4.696;2022-11-15T16:47:42;12.50;99.90
8858;DHT22;4465;50.904;4.696;2022-11-15T16:50:30;12.50;99.90
8858;DHT22;4465;50.904;4.696;2022-11-15T16:53:00;12.50;99.90
8858;DHT22;4465;50.904;4.696;2022-11-15T16:55:28;12.50;99.90
8858;DHT22;4465;50.904;4.696;2022-11-15T16:57:55;12.50;99.90
8858;DHT22;4465;50.904;4.696;2022-11-15T17:00:23;12.50;99.90
8858;DHT22;4465;50.904;4.696;2022-11-15T17:02:53;12.50;99.90
8858;DHT22;4465;50.904;4.696;2022-11-15T17:05:23;12.50;99.90
8858;DHT22;4465;50.904;4.696;2022-11-15T17:07:54;12.50;99.90
8858;DHT22;4465;50.904;4.696;2022-11-15T17:10:22;12.60;99.90
8858;DHT22;4465;50.904;4.696;2022-11-15T17:12:50;12.50;99.90
8858;DHT22;4465;50.904;4.696;2022-11-15T17:15:16;12.50;99.90
8858;DHT22;4465;50.904;4.696;2022-11-15T17:17:42;12.50;99.90
8858;DHT22;4465;50.904;4.696;2022-11-15T17:20:16;12.50;99.90
8858;DHT22;4465;50.904;4.696;2022-11-15T17:22:43;12.50;99.90
8858;DHT22;4465;50.904;4.696;2022-11-15T17:25:09;12.50;99.90
8858;DHT22;4465;50.904;4.696;2022-11-15T17:27:35;12.50;99.90
8858;DHT22;4465;50.904;4.696;2022-11-15T17:30:01;12.50;99.90
8858;DHT22;4465;50.904;4.696;2022-11-15T17:32:28;12.50;99.90
8858;DHT22;4465;50.904;4.696;2022-11-15T17:34:56;12.50;99.90
8858;DHT22;4465;50.904;4.696;2022-11-15T17:37:22;12.50;99.90
8858;DHT22;4465;50.904;4.696;2022-11-15T17:39:50;12.50;99.90
8858;DHT22;4465;50.904;4.696;2022-11-15T17:42:16;12.50;99.90
8858;DHT22;4465;50.904;4.696;2022-11-15T17:44:44;12.50;99.90
8858;DHT22;4465;50.904;4.696;2022-11-15T17:47:10;12.50;99.90
8858;DHT22;4465;50.904;4.696;2022-11-15T17:49:36;12.50;99.90
8858;DHT22;4465;50.904;4.696;2022-11-15T17:52:07;12.50;99.90
8858;DHT22;4465;50.904;4.696;2022-11-15T17:54:36;12.50;99.90
8858;DHT22;4465;50.904;4.696;2022-11-15T17:57:02;12.50;99.90
8858;DHT22;4465;50.904;4.696;2022-11-15T17:59:30;12.50;99.90
8858;DHT22;4465;50.904;4.696;2022-11-15T18:01:56;12.50;99.90
8858;DHT22;4465;50.904;4.696;2022-11-15T18:04:22;12.50;99.90
8858;DHT22;4465;50.904;4.696;2022-11-15T18:06:53;12.50;99.90
8858;DHT22;4465;50.904;4.696;2022-11-15T18:09:19;12.50;99.90
8858;DHT22;4465;50.904;4.696;2022-11-15T18:11:46;12.50;99.90
8858;DHT22;4465;50.904;4.696;2022-11-15T18:14:17;12.50;99.90